Time;durP1;ratioP1;P1;durP2;ratioP2;P2;SDS_P1;SDS_P2;PMS_P1;PMS_P2;Temp;Humidity;BMP_temperature;BMP_pressure;BME280_temperature;BME280_humidity;BME280_pressure;Samples;Min_cycle;Max_cycle;Signal;HPM_P1;HPM_P2
2023/07/11 00:01:49;;;;;;;;;2.00;2.00;;;;;27.77;31.37;100948.13;5036156;28;46154;-77
2023/07/11 00:04:14;;;;;;;;;2.50;2.00;;;;;27.73;31.72;100944.22;5036159;28;45684;-77
2023/07/11 00:06:39;;;;;;;;;3.00;2.75;;;;;27.75;31.70;100944.81;5036056;28;45722;-78
2023/07/11 00:09:05;;;;;;;;;1.00;1.00;;;;;27.73;32.10;100944.22;5035850;28;45683;-76
2023/07/11 00:14:52;;;;;;;;;2.00;2.00;;;;;27.70;31.88;100939.25;5034222;28;45537;-80
2023/07/11 00:17:17;;;;;;;;;1.00;1.00;;;;;27.70;32.01;100940.06;5035844;28;45871;-75
2023/07/11 00:19:55;;;;;;;;;1.00;1.00;;;;;27.67;32.29;100934.28;5035743;28;45628;-75
2023/07/11 00:22:21;;;;;;;;;2.00;2.00;;;;;27.64;32.51;100930.16;5035587;28;46011;-74
2023/07/11 00:24:48;;;;;;;;;1.00;1.00;;;;;27.66;32.29;100930.78;5035662;28;45625;-75
2023/07/11 00:27:16;;;;;;;;;3.00;2.00;;;;;27.64;31.98;100935.53;5035783;28;45707;-77
2023/07/11 00:29:41;;;;;;;;;3.00;2.25;;;;;27.64;32.17;100932.03;5035710;28;45537;-76
2023/07/11 00:32:08;;;;;;;;;3.00;3.00;;;;;27.62;32.29;100929.56;5035966;28;46266;-77
2023/07/11 00:34:33;;;;;;;;;1.00;1.00;;;;;27.58;31.94;100924.81;5034137;28;45743;-75
2023/07/11 00:36:58;;;;;;;;;2.00;2.00;;;;;27.57;32.97;100923.16;5035503;28;45512;-75
2023/07/11 00:39:26;;;;;;;;;2.00;2.00;;;;;27.57;32.50;100925.84;5035606;28;46414;-78
2023/07/11 00:46:11;;;;;;;;;1.00;1.00;;;;;27.53;32.53;100925.44;5035215;28;45718;-76
2023/07/11 00:48:41;;;;;;;;;2.75;2.75;;;;;27.48;32.93;100917.13;4993460;28;45770;-75
2023/07/11 00:51:10;;;;;;;;;1.00;1.00;;;;;27.47;32.88;100923.56;4993319;28;46383;-75
2023/07/11 00:53:39;;;;;;;;;3.00;2.00;;;;;27.42;32.44;100921.50;4993328;28;46171;-77
2023/07/11 00:56:07;;;;;;;;;2.50;2.50;;;;;27.41;32.85;100914.47;4993232;28;45732;-74
2023/07/11 00:58:34;;;;;;;;;2.00;2.00;;;;;27.39;32.87;100923.78;4993558;28;45706;-75
2023/07/11 01:01:00;;;;;;;;;2.00;2.00;;;;;27.36;32.88;100919.66;4993282;28;45612;-78
2023/07/11 01:03:25;;;;;;;;;2.00;2.00;;;;;27.33;33.07;100921.94;4993220;28;45811;-76
2023/07/11 01:05:55;;;;;;;;;5.75;4.00;;;;;27.32;33.25;100917.59;4993018;28;45762;-76
2023/07/11 01:08:21;;;;;;;;;3.00;2.00;;;;;27.27;33.41;100918.22;4993213;28;45800;-75
2023/07/11 01:10:46;;;;;;;;;2.00;1.75;;;;;27.28;33.66;100919.88;4992898;28;45605;-77
2023/07/11 01:13:11;;;;;;;;;3.00;2.75;;;;;27.26;33.29;100921.13;4992972;28;45644;-74
2023/07/11 01:15:37;;;;;;;;;2.00;2.00;;;;;27.20;33.40;100909.34;4992712;28;45590;-74
2023/07/11 01:18:02;;;;;;;;;2.00;2.00;;;;;27.20;32.94;100914.72;4976489;28;45897;-75
2023/07/11 01:20:28;;;;;;;;;1.25;1.25;;;;;27.13;33.86;100909.38;5033099;28;46422;-76
2023/07/11 01:22:55;;;;;;;;;1.25;1.25;;;;;27.11;33.78;100914.13;5034814;28;46319;-77
2023/07/11 01:25:22;;;;;;;;;2.00;2.00;;;;;27.06;33.63;100902.31;5034597;28;45736;-78
2023/07/11 01:27:49;;;;;;;;;2.50;2.25;;;;;27.06;34.19;100913.91;5034836;28;45526;-77
2023/07/11 01:30:18;;;;;;;;;3.00;2.00;;;;;26.99;33.63;100899.63;5034663;28;45503;-79
2023/07/11 01:32:43;;;;;;;;;2.75;2.25;;;;;26.98;34.15;100902.56;5034738;28;46160;-75
2023/07/11 01:35:09;;;;;;;;;2.00;2.00;;;;;26.97;34.00;100909.81;5034528;28;45520;-76
2023/07/11 01:37:35;;;;;;;;;2.00;2.00;;;;;26.93;33.90;100903.19;5034662;28;45595;-75
2023/07/11 01:40:01;;;;;;;;;2.00;2.00;;;;;26.95;33.69;100911.03;5034638;28;46464;-77
2023/07/11 01:45:48;;;;;;;;;3.50;3.00;;;;;26.90;34.60;100900.91;5034111;28;45612;-75
2023/07/11 01:48:13;;;;;;;;;1.75;1.50;;;;;26.88;34.84;100903.00;5034576;28;45964;-78
2023/07/11 01:50:39;;;;;;;;;4.00;3.00;;;;;26.86;34.38;100898.81;5034169;28;46270;-78
2023/07/11 01:53:04;;;;;;;;;4.00;2.25;;;;;26.84;34.93;100899.00;5032787;28;47001;-75
2023/07/11 01:55:30;;;;;;;;;3.50;3.00;;;;;26.80;34.24;100892.41;5032462;28;45944;-75
2023/07/11 01:57:55;;;;;;;;;2.00;2.00;;;;;26.73;35.01;100880.81;5034571;28;45492;-76
2023/07/11 02:00:21;;;;;;;;;2.00;2.00;;;;;26.75;34.46;100881.44;5034484;28;45520;-75
2023/07/11 02:02:46;;;;;;;;;2.00;2.00;;;;;26.72;34.78;100887.25;5034683;28;46052;-80
2023/07/11 02:05:14;;;;;;;;;1.50;1.50;;;;;26.68;34.76;100888.66;5034925;28;45892;-75
2023/07/11 02:07:40;;;;;;;;;2.25;2.00;;;;;26.66;34.49;100880.84;5034403;28;45547;-77
2023/07/11 02:10:06;;;;;;;;;3.00;2.00;;;;;26.63;35.40;100880.41;5034284;28;45621;-74
2023/07/11 02:15:53;;;;;;;;;3.75;3.00;;;;;26.57;35.08;100873.16;5023557;28;45725;-78
2023/07/11 02:18:19;;;;;;;;;2.00;2.00;;;;;26.55;35.07;100869.88;5034174;28;45669;-78
2023/07/11 02:20:44;;;;;;;;;3.00;2.00;;;;;26.53;35.27;100870.06;5032463;28;47067;-78
2023/07/11 02:23:12;;;;;;;;;3.00;2.00;;;;;26.55;35.28;100870.69;5033970;28;46396;-78
2023/07/11 02:25:39;;;;;;;;;2.75;2.00;;;;;26.52;35.50;100863.03;5033774;28;45563;-78
2023/07/11 02:28:04;;;;;;;;;3.00;3.00;;;;;26.54;35.56;100858.28;5034128;28;45528;-77
2023/07/11 02:30:30;;;;;;;;;2.00;2.00;;;;;26.52;35.71;100857.66;5033960;28;45536;-80
2023/07/11 02:32:55;;;;;;;;;2.25;2.00;;;;;26.52;35.71;100854.97;5033825;28;45496;-75
2023/07/11 02:35:20;;;;;;;;;3.25;2.00;;;;;26.52;36.15;100848.75;5033859;28;45497;-78
2023/07/11 02:37:46;;;;;;;;;2.00;2.00;;;;;26.49;35.42;100844.66;5034097;28;45612;-77
2023/07/11 02:40:11;;;;;;;;;5.00;3.50;;;;;26.52;35.64;100854.13;5034009;28;46482;-75
2023/07/11 02:45:59;;;;;;;;;3.00;3.00;;;;;26.51;35.83;100842.56;5033475;28;45609;-76
2023/07/11 02:48:26;;;;;;;;;3.00;3.00;;;;;26.51;36.05;100844.41;5034007;28;45631;-76
2023/07/11 02:50:51;;;;;;;;;2.50;2.00;;;;;26.51;35.72;100836.34;5033520;28;45558;-76
2023/07/11 02:53:17;;;;;;;;;1.25;1.25;;;;;26.49;35.65;100836.59;5033662;28;46730;-75
2023/07/11 02:55:43;;;;;;;;;2.25;2.25;;;;;26.47;35.94;100838.66;5033635;28;45681;-79
2023/07/11 02:58:09;;;;;;;;;2.00;2.00;;;;;26.47;36.14;100833.25;5033777;28;45837;-79
2023/07/11 03:00:35;;;;;;;;;2.00;2.00;;;;;26.44;35.68;100832.88;5033619;28;45824;-81
2023/07/11 03:03:01;;;;;;;;;2.00;2.00;;;;;26.45;36.45;100835.31;5033331;28;46087;-79
2023/07/11 03:05:27;;;;;;;;;6.00;3.00;;;;;26.45;36.12;100832.63;5033584;28;45610;-76
2023/07/11 03:07:52;;;;;;;;;4.00;3.00;;;;;26.42;36.20;100824.16;5037269;28;45643;-75
2023/07/11 03:10:17;;;;;;;;;3.00;2.00;;;;;26.43;36.43;100826.66;5037114;28;46512;-75
2023/07/11 03:16:05;;;;;;;;;3.50;3.25;;;;;26.42;36.02;100816.09;5035030;28;45662;-80
2023/07/11 03:18:32;;;;;;;;;3.75;3.00;;;;;26.39;35.95;100820.06;5037250;28;45586;-82
2023/07/11 03:20:59;;;;;;;;;2.50;2.50;;;;;26.38;36.16;100818.41;5037021;28;45544;-79
2023/07/11 03:23:25;;;;;;;;;2.75;2.75;;;;;26.37;36.70;100814.03;5036931;28;45791;-77
2023/07/11 03:25:50;;;;;;;;;2.25;2.25;;;;;26.36;36.75;100817.75;5036547;28;45658;-77
2023/07/11 03:28:16;;;;;;;;;4.00;3.00;;;;;26.34;36.43;100810.97;5036994;28;45524;-76
2023/07/11 03:30:42;;;;;;;;;2.75;2.75;;;;;26.30;36.14;100805.16;5036728;28;45707;-75
2023/07/11 03:33:07;;;;;;;;;3.00;2.75;;;;;26.30;36.65;100799.78;5036851;28;46160;-77
2023/07/11 03:35:33;;;;;;;;;3.00;2.00;;;;;26.29;36.69;100798.94;5036644;28;46206;-80
2023/07/11 03:37:59;;;;;;;;;2.75;2.75;;;;;26.28;36.84;100796.50;5036683;28;45737;-74
2023/07/11 03:40:25;;;;;;;;;2.00;2.00;;;;;26.24;36.70;100797.91;5036581;28;46458;-77
2023/07/11 03:46:12;;;;;;;;;2.50;2.50;;;;;26.22;37.02;100795.44;5036306;28;45636;-78
2023/07/11 03:48:37;;;;;;;;;3.00;2.50;;;;;26.22;36.88;100791.91;5034878;28;45737;-77
2023/07/11 03:51:04;;;;;;;;;3.00;3.00;;;;;26.21;36.79;100788.38;5036071;28;47175;-76
2023/07/11 03:53:29;;;;;;;;;2.00;2.00;;;;;26.21;37.16;100791.06;5036765;28;45603;-76
2023/07/11 03:55:55;;;;;;;;;3.00;3.00;;;;;26.21;36.46;100790.25;5036206;28;45583;-74
2023/07/11 04:01:42;;;;;;;;;3.00;2.25;;;;;26.20;37.10;100794.78;5035983;28;46000;-76
2023/07/11 04:04:07;;;;;;;;;3.00;3.00;;;;;26.19;37.44;100792.31;5036495;28;46192;-76
2023/07/11 04:06:32;;;;;;;;;3.50;2.75;;;;;26.19;37.31;100786.94;5036558;28;45559;-76
2023/07/11 04:08:58;;;;;;;;;4.00;3.00;;;;;26.15;37.49;100777.63;5036804;28;45681;-78
2023/07/11 04:11:23;;;;;;;;;3.00;3.00;;;;;26.16;37.34;100788.19;5036337;28;46225;-76
2023/07/11 04:13:49;;;;;;;;;2.75;2.50;;;;;26.16;37.57;100781.97;5036326;28;46267;-79
2023/07/11 04:16:14;;;;;;;;;4.00;3.00;;;;;26.13;37.71;100768.94;5035949;28;45526;-80
2023/07/11 04:18:40;;;;;;;;;3.25;3.00;;;;;26.10;37.58;100780.94;5033650;28;45692;-78
2023/07/11 04:21:05;;;;;;;;;4.75;3.00;;;;;26.13;37.48;100780.53;5034529;28;48401;-76
2023/07/11 04:23:31;;;;;;;;;4.00;2.75;;;;;26.12;37.95;100778.06;5036275;28;45618;-76
2023/07/11 04:25:56;;;;;;;;;3.25;3.00;;;;;26.11;37.64;100776.41;5036004;28;45583;-79
2023/07/11 04:31:43;;;;;;;;;3.00;3.00;;;;;26.06;37.83;100776.19;5035920;28;45644;-75
2023/07/11 04:34:09;;;;;;;;;3.25;3.00;;;;;26.04;37.99;100775.56;5035755;28;46345;-75
2023/07/11 04:36:35;;;;;;;;;3.50;3.00;;;;;26.02;37.82;100774.97;5035636;28;45723;-76
2023/07/11 04:39:00;;;;;;;;;3.00;3.00;;;;;26.02;38.34;100769.59;5036221;28;45689;-75
2023/07/11 04:41:25;;;;;;;;;3.00;3.00;;;;;26.00;37.67;100768.97;5035882;28;46462;-79
2023/07/11 04:43:51;;;;;;;;;3.00;3.00;;;;;25.99;38.29;100775.34;5038424;28;45630;-75
2023/07/11 04:46:16;;;;;;;;;4.25;3.00;;;;;25.98;37.96;100776.38;5039197;28;45626;-82
2023/07/11 04:48:44;;;;;;;;;4.00;3.50;;;;;25.94;37.78;100773.28;5038130;28;45637;-75
2023/07/11 04:51:11;;;;;;;;;5.50;4.00;;;;;25.87;38.20;100767.91;5038746;28;46603;-76
2023/07/11 04:53:36;;;;;;;;;3.00;3.00;;;;;25.84;38.03;100770.19;5038597;28;46177;-79
2023/07/11 04:56:04;;;;;;;;;3.25;2.50;;;;;25.78;38.19;100762.94;5037648;28;45627;-77
2023/07/11 05:01:52;;;;;;;;;3.50;2.50;;;;;25.70;38.17;100763.94;5036358;28;45599;-78
2023/07/11 05:04:18;;;;;;;;;4.00;3.25;;;;;25.68;38.25;100770.56;5037502;28;45796;-79
2023/07/11 05:06:47;;;;;;;;;3.00;3.00;;;;;25.64;38.25;100772.00;5039177;28;45790;-86
2023/07/11 05:09:15;;;;;;;;;4.00;3.00;;;;;25.59;38.41;100772.59;5040060;28;45433;-78
2023/07/11 05:11:40;;;;;;;;;11.75;11.00;;;;;25.59;38.67;100769.13;5037815;28;45737;-79
2023/07/11 05:14:06;;;;;;;;;5.00;4.25;;;;;25.54;38.46;100777.72;5033865;28;46978;-84
2023/07/11 05:16:31;;;;;;;;;7.00;6.00;;;;;25.48;38.69;100773.16;5034690;28;45635;-80
2023/07/11 05:18:58;;;;;;;;;4.50;4.50;;;;;25.43;38.71;100776.44;5038398;28;45709;-81
2023/07/11 05:21:25;;;;;;;;;5.00;5.00;;;;;25.41;39.17;100783.06;5033642;28;46408;-83
2023/07/11 05:23:51;;;;;;;;;5.00;4.00;;;;;25.39;38.96;100783.25;5035194;28;45977;-76
2023/07/11 05:26:17;;;;;;;;;4.25;4.00;;;;;25.36;39.09;100780.16;5035131;28;45656;-85
2023/07/11 05:32:05;;;;;;;;;5.75;4.00;;;;;25.26;38.99;100777.84;5034760;28;45617;-80
2023/07/11 05:34:30;;;;;;;;;5.00;5.00;;;;;25.20;39.57;100767.09;5033985;28;47655;-78
2023/07/11 05:36:55;;;;;;;;;4.00;4.00;;;;;25.14;39.97;100767.88;5035009;28;45749;-76
2023/07/11 05:39:21;;;;;;;;;5.00;4.00;;;;;25.06;39.67;100764.34;5035152;28;45786;-77
2023/07/11 05:41:49;;;;;;;;;5.50;4.00;;;;;25.04;39.62;100773.63;5034965;28;46283;-76
2023/07/11 05:44:15;;;;;;;;;5.25;5.00;;;;;24.99;39.81;100766.16;5035459;28;45609;-76
2023/07/11 05:46:42;;;;;;;;;4.50;4.00;;;;;24.93;40.08;100761.63;5035682;28;45650;-74
2023/07/11 05:49:07;;;;;;;;;5.00;4.00;;;;;24.89;40.26;100763.00;5035384;28;45633;-76
2023/07/11 05:51:33;;;;;;;;;4.00;2.50;;;;;24.87;39.99;100757.00;5034973;28;45708;-73
2023/07/11 05:53:58;;;;;;;;;2.50;2.50;;;;;24.84;40.31;100751.19;5035435;28;45749;-77
2023/07/11 05:56:24;;;;;;;;;3.25;3.00;;;;;24.84;40.55;100752.03;5035683;28;46058;-77
2023/07/11 06:02:11;;;;;;;;;3.00;3.00;;;;;24.88;40.27;100753.34;5036037;28;45455;-74
2023/07/11 06:04:36;;;;;;;;;2.00;2.00;;;;;24.89;40.43;100756.81;5034627;28;46304;-74
2023/07/11 06:07:03;;;;;;;;;3.00;3.00;;;;;24.88;40.43;100752.50;5035009;28;45589;-80
2023/07/11 06:09:28;;;;;;;;;3.00;3.00;;;;;24.85;40.77;100751.00;5034783;28;45555;-72
2023/07/11 06:11:56;;;;;;;;;3.25;2.25;;;;;24.86;40.47;100750.00;5034355;28;46306;-76
2023/07/11 06:14:22;;;;;;;;;4.00;4.00;;;;;24.85;40.56;100763.56;5034268;28;46305;-77
2023/07/11 06:16:48;;;;;;;;;3.75;2.00;;;;;24.81;40.57;100756.97;5033945;28;45775;-78
2023/07/11 06:19:14;;;;;;;;;4.00;4.00;;;;;24.80;40.77;100748.09;5034546;28;45522;-78
2023/07/11 06:21:39;;;;;;;;;4.00;3.00;;;;;24.81;40.10;100747.06;5034376;28;46310;-78
2023/07/11 06:24:05;;;;;;;;;2.25;2.00;;;;;24.81;40.48;100760.47;5034267;28;45595;-77
2023/07/11 06:26:30;;;;;;;;;4.25;3.00;;;;;24.80;40.86;100744.59;5034344;28;45654;-77
2023/07/11 06:32:17;;;;;;;;;4.00;3.00;;;;;24.79;41.00;100742.91;5034117;28;45918;-77
2023/07/11 06:34:43;;;;;;;;;3.00;2.50;;;;;24.80;41.16;100744.59;5033921;28;46466;-77
2023/07/11 06:37:08;;;;;;;;;5.00;4.50;;;;;24.79;41.07;100746.44;5033990;28;45648;-77
2023/07/11 06:39:34;;;;;;;;;3.50;3.00;;;;;24.81;41.28;100740.88;5034380;28;45575;-78
2023/07/11 06:41:59;;;;;;;;;3.50;3.50;;;;;24.80;41.02;100737.38;5036216;28;46391;-76
2023/07/11 06:47:46;;;;;;;;;1.25;1.00;;;;;24.84;41.31;100737.78;5037443;28;45714;-75
2023/07/11 06:50:12;;;;;;;;;2.25;2.25;;;;;24.85;41.25;100739.44;5037618;28;45829;-77
2023/07/11 06:52:37;;;;;;;;;4.00;4.00;;;;;24.88;41.05;100742.63;5037424;28;46436;-78
2023/07/11 06:55:03;;;;;;;;;3.50;2.50;;;;;24.92;41.26;100740.34;5035725;28;48181;-79
2023/07/11 06:57:28;;;;;;;;;4.00;3.00;;;;;24.91;41.81;100736.84;5037325;28;45530;-77
2023/07/11 06:59:53;;;;;;;;;3.25;2.25;;;;;24.92;41.37;100730.47;5037718;28;45515;-77
2023/07/11 07:02:19;;;;;;;;;2.50;2.50;;;;;24.91;41.35;100727.97;5037269;28;45490;-77
2023/07/11 07:04:44;;;;;;;;;2.00;2.00;;;;;24.97;41.45;100732.53;5037297;28;45529;-76
2023/07/11 07:07:09;;;;;;;;;4.00;4.00;;;;;25.01;41.20;100733.78;5037073;28;45530;-77
2023/07/11 07:09:35;;;;;;;;;3.75;3.25;;;;;25.04;41.26;100728.88;5037289;28;45495;-76
2023/07/11 07:12:00;;;;;;;;;4.00;3.00;;;;;25.04;41.12;100728.88;5037163;28;46380;-78
2023/07/11 07:18:01;;;;;;;;;4.25;3.00;;;;;25.09;41.07;100725.59;5027918;28;45908;-76
2023/07/11 07:20:26;;;;;;;;;3.00;3.00;;;;;25.08;41.36;100732.81;5037331;28;45444;-76
2023/07/11 07:22:53;;;;;;;;;4.25;3.50;;;;;25.10;41.54;100729.09;5036858;28;45673;-77
2023/07/11 07:25:18;;;;;;;;;2.00;2.00;;;;;25.13;41.37;100732.19;5036742;28;46288;-78
2023/07/11 07:27:44;;;;;;;;;3.25;3.00;;;;;25.13;41.36;100723.31;5036946;28;45531;-77
2023/07/11 07:30:11;;;;;;;;;4.00;4.00;;;;;25.20;41.37;100729.53;5037273;28;45613;-78
2023/07/11 07:32:37;;;;;;;;;6.00;5.25;;;;;25.23;41.35;100727.28;5036768;28;46957;-78
2023/07/11 07:35:02;;;;;;;;;2.25;2.25;;;;;25.25;41.41;100722.53;5036672;28;45925;-78
2023/07/11 07:37:28;;;;;;;;;3.00;2.50;;;;;25.28;41.08;100711.41;5036812;28;45567;-79
2023/07/11 07:39:53;;;;;;;;;3.00;2.50;;;;;25.31;41.19;100712.88;5037191;28;45672;-77
2023/07/11 07:42:18;;;;;;;;;5.00;4.00;;;;;25.35;41.23;100711.41;5036631;28;46276;-78
2023/07/11 07:48:06;;;;;;;;;5.00;4.25;;;;;25.41;41.34;100708.75;5036569;28;45639;-76
2023/07/11 07:50:31;;;;;;;;;4.00;3.00;;;;;25.42;41.25;100705.06;5036804;28;45864;-77
2023/07/11 07:52:56;;;;;;;;;3.25;2.25;;;;;25.44;41.10;100710.19;5036221;28;45611;-78
2023/07/11 07:55:22;;;;;;;;;2.25;2.00;;;;;25.49;41.23;100707.72;5036526;28;46198;-78
2023/07/11 07:57:47;;;;;;;;;4.00;3.50;;;;;25.51;41.35;100705.69;5036512;28;45568;-78
2023/07/11 08:00:13;;;;;;;;;4.00;4.00;;;;;25.55;41.62;100706.09;5036974;28;45515;-78
2023/07/11 08:02:42;;;;;;;;;3.50;2.50;;;;;25.57;41.24;100704.06;5036369;28;46267;-79
2023/07/11 08:05:08;;;;;;;;;3.00;3.00;;;;;25.62;41.30;100699.75;5036419;28;45849;-75
2023/07/11 08:07:33;;;;;;;;;3.00;3.00;;;;;25.66;41.49;100703.66;5036344;28;45613;-77
2023/07/11 08:09:58;;;;;;;;;4.00;4.00;;;;;25.71;41.31;100701.19;5036540;28;45661;-75
2023/07/11 08:12:25;;;;;;;;;4.50;3.25;;;;;25.76;41.20;100685.28;5036213;28;45566;-76
2023/07/11 08:18:12;;;;;;;;;3.75;3.50;;;;;25.83;41.03;100678.06;5031830;28;45761;-76
2023/07/11 08:20:38;;;;;;;;;5.00;4.50;;;;;25.89;41.14;100673.72;5036467;28;45877;-75
2023/07/11 08:23:04;;;;;;;;;5.00;4.50;;;;;25.94;41.45;100667.72;5036090;28;45653;-76
2023/07/11 08:25:29;;;;;;;;;4.00;3.25;;;;;25.99;40.95;100667.94;5035803;28;45984;-76
2023/07/11 08:27:55;;;;;;;;;4.00;3.50;;;;;26.00;41.27;100654.31;5034647;28;45667;-76
2023/07/11 08:30:20;;;;;;;;;3.00;3.00;;;;;26.06;40.99;100661.53;5036289;28;45593;-77
2023/07/11 08:32:46;;;;;;;;;4.50;3.25;;;;;26.13;40.87;100669.56;5035941;28;45695;-76
2023/07/11 08:35:11;;;;;;;;;5.25;4.00;;;;;26.16;41.00;100661.09;5034239;28;47101;-75
2023/07/11 08:37:37;;;;;;;;;3.00;3.00;;;;;26.22;40.73;100671.00;5035844;28;45637;-76
2023/07/11 08:40:04;;;;;;;;;4.00;3.00;;;;;26.24;40.63;100659.03;5036314;28;45859;-77
2023/07/11 08:42:35;;;;;;;;;4.00;3.75;;;;;26.30;40.31;100665.44;5035830;28;45542;-77
2023/07/11 08:48:32;;;;;;;;;3.50;3.00;;;;;26.32;40.47;100649.94;5035634;28;45681;-78
2023/07/11 08:51:16;;;;;;;;;3.75;3.00;;;;;26.38;40.70;100659.03;5035963;28;45527;-78
2023/07/11 08:53:49;;;;;;;;;3.25;3.00;;;;;26.41;39.98;100655.91;5035487;28;46498;-75
2023/07/11 08:56:38;;;;;;;;;5.00;3.50;;;;;26.43;40.65;100660.03;5035356;28;46192;-78
2023/07/11 08:59:07;;;;;;;;;3.50;3.00;;;;;26.44;40.52;100647.44;5035432;28;45728;-78
2023/07/11 09:01:42;;;;;;;;;2.75;2.75;;;;;26.48;40.31;100649.47;5035731;28;45607;-79
2023/07/11 09:04:12;;;;;;;;;3.00;3.00;;;;;26.51;40.40;100634.78;5034670;28;45713;-79
2023/07/11 09:06:59;;;;;;;;;3.00;2.00;;;;;26.57;40.31;100637.44;5035293;28;45954;-79
2023/07/11 09:09:25;;;;;;;;;4.50;3.00;;;;;26.62;40.36;100639.50;5035439;28;45595;-75
2023/07/11 09:12:28;;;;;;;;;3.00;2.75;;;;;26.67;40.33;100629.75;5035416;28;45567;-76
2023/07/11 09:15:13;;;;;;;;;3.25;3.25;;;;;26.71;40.23;100631.00;5035197;28;45504;-75
2023/07/11 09:18:00;;;;;;;;;4.00;4.00;;;;;26.77;40.01;100617.75;5034379;28;45963;-75
2023/07/11 09:20:47;;;;;;;;;5.75;5.00;;;;;26.81;39.73;100616.25;5035398;28;45658;-78
2023/07/11 09:23:31;;;;;;;;;4.50;4.00;;;;;26.86;39.91;100622.66;5035399;28;45795;-77
2023/07/11 09:26:02;;;;;;;;;4.75;4.25;;;;;26.91;39.88;100619.34;5034900;28;45628;-76
2023/07/11 09:31:55;;;;;;;;;3.75;3.75;;;;;27.06;40.34;100630.63;5034677;28;45516;-76
2023/07/11 09:34:42;;;;;;;;;2.50;2.50;;;;;27.12;39.93;100619.00;5035303;28;45608;-75
2023/07/11 09:37:24;;;;;;;;;5.00;4.00;;;;;27.17;40.03;100611.09;5034872;28;45674;-76
2023/07/11 09:40:22;;;;;;;;;6.00;5.00;;;;;27.20;39.99;100608.00;5034997;28;45907;-77
2023/07/11 09:42:51;;;;;;;;;3.75;3.00;;;;;27.26;39.56;100607.09;5035012;28;45614;-77
2023/07/11 09:48:39;;;;;;;;;4.75;4.50;;;;;27.35;39.40;100605.81;5034639;28;46069;-75
2023/07/11 09:51:36;;;;;;;;;5.00;5.00;;;;;27.41;39.63;100596.88;5034755;28;45948;-75
2023/07/11 09:54:18;;;;;;;;;4.00;4.00;;;;;27.46;40.00;100590.81;5034725;28;45677;-76
2023/07/11 09:56:46;;;;;;;;;4.50;4.25;;;;;27.52;39.72;100592.66;5034576;28;45734;-75
2023/07/11 09:59:13;;;;;;;;;4.25;4.25;;;;;27.54;39.61;100587.88;5034703;28;45391;-76
2023/07/11 10:01:39;;;;;;;;;5.00;5.00;;;;;27.59;38.56;100597.97;5034703;28;46145;-75
2023/07/11 10:04:25;;;;;;;;;5.00;4.00;;;;;27.61;39.45;100582.44;5034534;28;45580;-75
2023/07/11 10:07:03;;;;;;;;;4.00;4.00;;;;;27.65;39.03;100567.47;5034643;28;45645;-75
2023/07/11 10:09:36;;;;;;;;;6.00;4.00;;;;;27.70;38.50;100575.72;5034379;28;45539;-75
2023/07/11 10:12:14;;;;;;;;;4.00;4.00;;;;;27.72;39.11;100568.25;5034588;28;45891;-75
2023/07/11 10:14:44;;;;;;;;;4.00;3.00;;;;;27.74;38.48;100558.09;5034171;28;45556;-79
2023/07/11 10:17:30;;;;;;;;;4.25;4.25;;;;;27.79;38.65;100560.94;5034309;28;45620;-75
2023/07/11 10:19:57;;;;;;;;;5.25;4.25;;;;;27.81;38.92;100562.34;5034306;28;46401;-76
2023/07/11 10:22:26;;;;;;;;;4.50;4.50;;;;;27.87;38.95;100552.56;5034410;28;45625;-76
2023/07/11 10:24:59;;;;;;;;;4.00;4.00;;;;;27.93;38.74;100552.50;5034164;28;45515;-76
2023/07/11 10:27:30;;;;;;;;;4.75;4.25;;;;;27.95;38.21;100539.63;5034454;28;45956;-77
2023/07/11 10:29:59;;;;;;;;;4.75;4.25;;;;;28.01;38.15;100548.69;5034288;28;45576;-78
2023/07/11 10:32:35;;;;;;;;;5.00;5.00;;;;;28.06;37.98;100546.13;5034318;28;45908;-78
2023/07/11 10:35:08;;;;;;;;;4.50;3.50;;;;;28.07;37.50;100536.19;5034178;28;45460;-77
2023/07/11 10:37:33;;;;;;;;;2.75;2.00;;;;;28.14;37.40;100535.06;5034223;28;45546;-78
2023/07/11 10:40:27;;;;;;;;;4.00;4.00;;;;;28.17;37.55;100534.66;5034122;28;45727;-77
2023/07/11 10:43:01;;;;;;;;;3.00;3.00;;;;;28.23;37.03;100541.00;5034253;28;45516;-80
2023/07/11 10:45:31;;;;;;;;;4.00;4.00;;;;;28.26;37.37;100533.28;5034085;28;45598;-77
2023/07/11 10:48:16;;;;;;;;;4.00;4.00;;;;;28.32;37.24;100536.94;5034658;28;45728;-76
2023/07/11 10:50:45;;;;;;;;;4.00;4.00;;;;;28.37;36.86;100527.13;5034030;28;46676;-78
2023/07/11 10:53:38;;;;;;;;;3.75;3.50;;;;;28.44;36.57;100529.75;5033932;28;45951;-79
2023/07/11 10:56:29;;;;;;;;;7.00;5.00;;;;;28.50;36.73;100520.75;5033916;28;45621;-76
2023/07/11 11:02:26;;;;;;;;;4.25;3.50;;;;;28.63;36.49;100503.53;5033485;28;45938;-76
2023/07/11 11:05:39;;;;;;;;;4.50;4.00;;;;;28.67;36.58;100493.94;5033642;28;46428;-77
2023/07/11 11:08:18;;;;;;;;;3.25;3.25;;;;;28.72;36.51;100486.81;4972187;28;45549;-80
2023/07/11 11:11:02;;;;;;;;;4.50;4.50;;;;;28.78;36.91;100490.47;4972468;28;45710;-77
2023/07/11 11:16:31;;;;;;;;;4.00;4.00;;;;;28.89;36.21;100491.56;4971674;28;45888;-75
2023/07/11 11:18:59;;;;;;;;;5.00;3.00;;;;;28.94;36.19;100488.97;4971889;28;45853;-76
2023/07/11 11:21:40;;;;;;;;;4.00;3.00;;;;;28.97;36.08;100475.88;4972347;28;45708;-76
2023/07/11 11:24:29;;;;;;;;;5.00;4.00;;;;;29.03;35.79;100480.34;4971602;28;47027;-78
2023/07/11 11:27:03;;;;;;;;;4.25;3.00;;;;;29.09;36.20;100482.09;4972495;28;46114;-77
2023/07/11 11:33:16;;;;;;;;;3.25;3.00;;;;;29.22;35.63;100483.75;4975256;28;45748;-74
2023/07/11 11:35:57;;;;;;;;;3.50;3.00;;;;;29.27;35.69;100473.06;4964719;28;46587;-76
2023/07/11 11:38:44;;;;;;;;;2.00;2.00;;;;;29.34;35.17;100456.78;4975190;28;45845;-78
2023/07/11 11:41:13;;;;;;;;;2.75;2.75;;;;;29.38;35.30;100447.97;4975215;28;45729;-75
2023/07/11 11:49:47;;;;;;;;;2.00;2.00;;;;;29.54;35.03;100435.63;5036297;28;45851;-77
2023/07/11 11:52:14;;;;;;;;;4.75;4.00;;;;;29.58;34.96;100434.91;5036783;28;46017;-76
2023/07/11 11:54:45;;;;;;;;;4.00;3.00;;;;;29.69;34.78;100438.63;5036711;28;45722;-76
2023/07/11 11:57:24;;;;;;;;;5.00;3.50;;;;;29.77;34.83;100437.47;5036756;28;45698;-76
2023/07/11 11:59:50;;;;;;;;;2.75;2.75;;;;;29.83;34.82;100431.91;5036403;28;45788;-75
2023/07/11 12:02:31;;;;;;;;;4.00;3.50;;;;;29.92;34.66;100421.56;5034913;28;45767;-77
2023/07/11 12:05:08;;;;;;;;;3.50;3.25;;;;;30.01;34.36;100409.34;5034933;28;45783;-75
2023/07/11 12:07:37;;;;;;;;;2.50;2.50;;;;;30.08;33.99;100414.59;5034835;28;46680;-75
2023/07/11 12:10:08;;;;;;;;;3.00;3.00;;;;;30.16;34.09;100416.91;5036318;28;46291;-78
2023/07/11 12:12:34;;;;;;;;;4.50;3.75;;;;;30.24;34.34;100408.41;5036379;28;45594;-75
2023/07/11 12:15:01;;;;;;;;;4.00;3.00;;;;;30.31;34.21;100414.47;5036237;28;45756;-75
2023/07/11 12:17:29;;;;;;;;;2.50;2.25;;;;;30.41;33.98;100414.66;5035936;28;45613;-75
2023/07/11 12:20:00;;;;;;;;;4.00;4.00;;;;;30.51;33.88;100406.75;5036235;28;46153;-75
2023/07/11 12:22:52;;;;;;;;;1.75;1.75;;;;;30.62;33.84;100407.75;5036145;28;45711;-77
2023/07/11 12:25:20;;;;;;;;;4.00;3.00;;;;;30.75;33.79;100410.13;5036082;28;45723;-77
2023/07/11 12:28:04;;;;;;;;;2.50;2.50;;;;;30.84;33.54;100403.22;5036088;28;45581;-78
2023/07/11 12:31:03;;;;;;;;;2.75;2.50;;;;;30.93;32.87;100400.94;5034408;28;46161;-77
2023/07/11 12:33:36;;;;;;;;;3.00;2.50;;;;;30.96;32.87;100386.91;5036108;28;45644;-78
2023/07/11 12:36:23;;;;;;;;;2.75;2.75;;;;;31.02;32.65;100400.28;5036081;28;45575;-77
2023/07/11 12:39:04;;;;;;;;;3.50;3.50;;;;;31.05;33.03;100388.16;5033014;28;47232;-78
2023/07/11 12:41:40;;;;;;;;;4.50;3.00;;;;;31.07;32.92;100392.25;5035746;28;45609;-75
2023/07/11 12:47:28;;;;;;;;;3.00;3.00;;;;;31.04;32.65;100378.41;5035825;28;45602;-77
2023/07/11 12:49:55;;;;;;;;;4.00;2.50;;;;;31.02;32.27;100378.63;5035739;28;46467;-76
2023/07/11 12:52:24;;;;;;;;;2.75;2.75;;;;;31.01;32.17;100376.97;5035674;28;45685;-76
2023/07/11 12:54:49;;;;;;;;;3.25;3.00;;;;;31.00;32.45;100364.50;5035528;28;45565;-77
2023/07/11 12:57:18;;;;;;;;;3.50;2.50;;;;;31.02;32.47;100369.69;5035813;28;45635;-78
2023/07/11 13:03:33;;;;;;;;;3.50;3.00;;;;;31.07;32.92;100357.06;5035196;28;45823;-76
2023/07/11 13:06:04;;;;;;;;;4.00;4.00;;;;;31.11;32.91;100358.19;5033823;28;45588;-74